sensor_id;sensor_type;location;lat;lon;timestamp;pressure;altitude;pressure_sealevel;temperature;humidity
47913;BME280;33676;51.006;17.180;2023-02-10T00:01:42;101871.33;;;-0.77;77.05
47913;BME280;33676;51.006;17.180;2023-02-10T00:04:14;101859.64;;;-0.77;77.11
47913;BME280;33676;51.006;17.180;2023-02-10T00:06:42;101868.05;;;-0.77;77.15
47913;BME280;33676;51.006;17.180;2023-02-10T00:09:12;101870.46;;;-0.77;77.11
47913;BME280;33676;51.006;17.180;2023-02-10T00:11:44;101870.64;;;-0.77;77.08
47913;BME280;33676;51.006;17.180;2023-02-10T00:14:26;101874.58;;;-0.77;77.05
47913;BME280;33676;51.006;17.180;2023-02-10T00:16:56;101880.24;;;-0.78;77.20
47913;BME280;33676;51.006;17.180;2023-02-10T00:19:27;101883.85;;;-0.78;77.01
47913;BME280;33676;51.006;17.180;2023-02-10T00:21:57;101882.49;;;-0.79;76.86
47913;BME280;33676;51.006;17.180;2023-02-10T00:24:27;101877.86;;;-0.80;76.96
47913;BME280;33676;51.006;17.180;2023-02-10T00:26:55;101878.72;;;-0.81;76.96
47913;BME280;33676;51.006;17.180;2023-02-10T00:29:25;101882.51;;;-0.83;76.97
47913;BME280;33676;51.006;17.180;2023-02-10T00:31:57;101885.26;;;-0.84;77.00
47913;BME280;33676;51.006;17.180;2023-02-10T00:34:25;101887.16;;;-0.85;76.90
47913;BME280;33676;51.006;17.180;2023-02-10T00:36:55;101884.93;;;-0.86;77.04
47913;BME280;33676;51.006;17.180;2023-02-10T00:39:24;101881.85;;;-0.88;76.89
47913;BME280;33676;51.006;17.180;2023-02-10T00:41:52;101886.32;;;-0.91;76.91
47913;BME280;33676;51.006;17.180;2023-02-10T00:44:21;101892.34;;;-0.93;77.02
47913;BME280;33676;51.006;17.180;2023-02-10T00:46:49;101890.12;;;-0.95;77.07
47913;BME280;33676;51.006;17.180;2023-02-10T00:49:18;101895.79;;;-0.96;77.19
47913;BME280;33676;51.006;17.180;2023-02-10T00:51:46;101893.90;;;-0.98;77.07
47913;BME280;33676;51.006;17.180;2023-02-10T00:54:15;101899.06;;;-1.01;77.04
47913;BME280;33676;51.006;17.180;2023-02-10T00:56:43;101903.38;;;-1.04;76.96
47913;BME280;33676;51.006;17.180;2023-02-10T00:59:13;101902.04;;;-1.07;76.90
47913;BME280;33676;51.006;17.180;2023-02-10T01:01:41;101898.96;;;-1.10;77.16
47913;BME280;33676;51.006;17.180;2023-02-10T01:04:10;101900.52;;;-1.13;76.94
47913;BME280;33676;51.006;17.180;2023-02-10T01:06:38;101895.39;;;-1.18;77.02
47913;BME280;33676;51.006;17.180;2023-02-10T01:09:07;101894.71;;;-1.22;77.01
47913;BME280;33676;51.006;17.180;2023-02-10T01:11:35;101891.30;;;-1.28;76.99
47913;BME280;33676;51.006;17.180;2023-02-10T01:14:04;101887.20;;;-1.33;76.96
47913;BME280;33676;51.006;17.180;2023-02-10T01:16:32;101886.35;;;-1.38;76.88
47913;BME280;33676;51.006;17.180;2023-02-10T01:19:01;101889.61;;;-1.40;77.15
47913;BME280;33676;51.006;17.180;2023-02-10T01:21:32;101886.36;;;-1.42;77.25
47913;BME280;33676;51.006;17.180;2023-02-10T01:24:03;101884.14;;;-1.44;77.19
47913;BME280;33676;51.006;17.180;2023-02-10T01:26:33;101884.14;;;-1.47;77.22
47913;BME280;33676;51.006;17.180;2023-02-10T01:29:02;101883.64;;;-1.49;77.37
47913;BME280;33676;51.006;17.180;2023-02-10T01:31:30;101879.38;;;-1.55;77.28
47913;BME280;33676;51.006;17.180;2023-02-10T01:33:59;101875.13;;;-1.62;77.16
47913;BME280;33676;51.006;17.180;2023-02-10T01:36:27;101871.20;;;-1.71;77.04
47913;BME280;33676;51.006;17.180;2023-02-10T01:38:55;101869.66;;;-1.80;77.04
47913;BME280;33676;51.006;17.180;2023-02-10T01:41:24;101867.61;;;-1.87;77.01
47913;BME280;33676;51.006;17.180;2023-02-10T01:46:48;101869.17;;;-2.02;77.24
47913;BME280;33676;51.006;17.180;2023-02-10T01:49:22;101867.48;;;-2.10;77.21
47913;BME280;33676;51.006;17.180;2023-02-10T01:52:06;101864.91;;;-2.17;77.40
47913;BME280;33676;51.006;17.180;2023-02-10T01:54:43;101862.34;;;-2.25;77.52
47913;BME280;33676;51.006;17.180;2023-02-10T01:57:12;101863.54;;;-2.31;77.62
47913;BME280;33676;51.006;17.180;2023-02-10T01:59:41;101859.25;;;-2.36;77.65
47913;BME280;33676;51.006;17.180;2023-02-10T02:02:11;101861.30;;;-2.40;77.65
47913;BME280;33676;51.006;17.180;2023-02-10T02:04:58;101856.50;;;-2.45;77.65
47913;BME280;33676;51.006;17.180;2023-02-10T02:07:29;101859.23;;;-2.51;77.76
47913;BME280;33676;51.006;17.180;2023-02-10T02:10:01;101858.20;;;-2.56;77.82
47913;BME280;33676;51.006;17.180;2023-02-10T02:12:52;101864.39;;;-2.62;78.09
47913;BME280;33676;51.006;17.180;2023-02-10T02:15:37;101861.80;;;-2.68;78.17
47913;BME280;33676;51.006;17.180;2023-02-10T02:18:24;101867.79;;;-2.70;78.39
47913;BME280;33676;51.006;17.180;2023-02-10T02:21:34;101873.95;;;-2.73;78.63
47913;BME280;33676;51.006;17.180;2023-02-10T02:24:21;101879.08;;;-2.74;78.76
47913;BME280;33676;51.006;17.180;2023-02-10T02:27:41;101878.39;;;-2.72;79.01
47913;BME280;33676;51.006;17.180;2023-02-10T02:36:06;101873.27;;;-2.66;79.44
47913;BME280;33676;51.006;17.180;2023-02-10T02:38:40;101875.67;;;-2.65;79.15
47913;BME280;33676;51.006;17.180;2023-02-10T02:41:10;101875.50;;;-2.68;79.11
47913;BME280;33676;51.006;17.180;2023-02-10T02:43:39;101874.81;;;-2.70;79.14
47913;BME280;33676;51.006;17.180;2023-02-10T02:46:21;101869.15;;;-2.73;79.10
47913;BME280;33676;51.006;17.180;2023-02-10T02:52:03;101872.90;;;-2.80;79.16
47913;BME280;33676;51.006;17.180;2023-02-10T02:57:52;101872.21;;;-2.81;79.41
47913;BME280;33676;51.006;17.180;2023-02-10T03:00:24;101873.23;;;-2.79;79.56
47913;BME280;33676;51.006;17.180;2023-02-10T03:02:55;101874.45;;;-2.76;79.71
47913;BME280;33676;51.006;17.180;2023-02-10T03:05:28;101869.15;;;-2.74;79.82
47913;BME280;33676;51.006;17.180;2023-02-10T03:07:57;101862.82;;;-2.73;79.65
47913;BME280;33676;51.006;17.180;2023-02-10T03:10:26;101865.73;;;-2.71;79.82
47913;BME280;33676;51.006;17.180;2023-02-10T03:12:54;101859.41;;;-2.71;79.70
47913;BME280;33676;51.006;17.180;2023-02-10T03:15:23;101866.42;;;-2.71;79.67
47913;BME280;33676;51.006;17.180;2023-02-10T03:17:52;101867.62;;;-2.71;79.76
47913;BME280;33676;51.006;17.180;2023-02-10T03:20:20;101869.50;;;-2.70;79.73
47913;BME280;33676;51.006;17.180;2023-02-10T03:22:49;101868.82;;;-2.69;79.79
47913;BME280;33676;51.006;17.180;2023-02-10T03:25:17;101870.36;;;-2.68;79.77
47913;BME280;33676;51.006;17.180;2023-02-10T03:27:46;101874.98;;;-2.66;79.83
47913;BME280;33676;51.006;17.180;2023-02-10T03:30:14;101880.13;;;-2.64;79.78
47913;BME280;33676;51.006;17.180;2023-02-10T03:32:43;101876.36;;;-2.62;79.80
47913;BME280;33676;51.006;17.180;2023-02-10T03:35:12;101881.99;;;-2.58;80.11
47913;BME280;33676;51.006;17.180;2023-02-10T03:37:40;101888.50;;;-2.55;79.85
47913;BME280;33676;51.006;17.180;2023-02-10T03:40:09;101888.52;;;-2.53;79.98
47913;BME280;33676;51.006;17.180;2023-02-10T03:42:38;101891.25;;;-2.51;79.89
47913;BME280;33676;51.006;17.180;2023-02-10T03:45:07;101895.02;;;-2.51;79.81
47913;BME280;33676;51.006;17.180;2023-02-10T03:47:36;101896.03;;;-2.55;79.58
47913;BME280;33676;51.006;17.180;2023-02-10T03:50:05;101894.84;;;-2.59;79.52
47913;BME280;33676;51.006;17.180;2023-02-10T03:52:33;101895.02;;;-2.62;79.45
47913;BME280;33676;51.006;17.180;2023-02-10T03:55:05;101898.95;;;-2.65;79.55
47913;BME280;33676;51.006;17.180;2023-02-10T03:57:34;101899.46;;;-2.69;79.47
47913;BME280;33676;51.006;17.180;2023-02-10T04:00:04;101897.21;;;-2.73;79.48
47913;BME280;33676;51.006;17.180;2023-02-10T04:02:32;101903.38;;;-2.76;79.50
47913;BME280;33676;51.006;17.180;2023-02-10T04:05:01;101905.58;;;-2.79;79.61
47913;BME280;33676;51.006;17.180;2023-02-10T04:07:29;101904.38;;;-2.81;79.60
47913;BME280;33676;51.006;17.180;2023-02-10T04:09:58;101908.14;;;-2.85;79.77
47913;BME280;33676;51.006;17.180;2023-02-10T04:12:26;101908.46;;;-2.87;79.70
47913;BME280;33676;51.006;17.180;2023-02-10T04:14:55;101905.04;;;-2.89;79.85
47913;BME280;33676;51.006;17.180;2023-02-10T04:17:23;101905.73;;;-2.90;79.81
47913;BME280;33676;51.006;17.180;2023-02-10T04:19:52;101902.46;;;-2.91;79.97
47913;BME280;33676;51.006;17.180;2023-02-10T04:22:20;101903.30;;;-2.93;79.93
47913;BME280;33676;51.006;17.180;2023-02-10T04:24:49;101901.25;;;-2.95;80.02
47913;BME280;33676;51.006;17.180;2023-02-10T04:27:17;101908.59;;;-2.97;79.97
47913;BME280;33676;51.006;17.180;2023-02-10T04:29:46;101908.75;;;-2.99;80.02
47913;BME280;33676;51.006;17.180;2023-02-10T04:32:14;101914.91;;;-3.01;80.08
47913;BME280;33676;51.006;17.180;2023-02-10T04:34:43;101920.38;;;-3.02;80.02
47913;BME280;33676;51.006;17.180;2023-02-10T04:37:11;101920.38;;;-3.03;80.18
47913;BME280;33676;51.006;17.180;2023-02-10T04:39:40;101923.11;;;-3.03;80.16
47913;BME280;33676;51.006;17.180;2023-02-10T04:42:08;101919.86;;;-3.02;80.31
47913;BME280;33676;51.006;17.180;2023-02-10T04:44:37;101916.96;;;-3.01;80.25
47913;BME280;33676;51.006;17.180;2023-02-10T04:47:05;101917.13;;;-3.01;80.19
47913;BME280;33676;51.006;17.180;2023-02-10T04:49:34;101917.46;;;-3.03;80.21
47913;BME280;33676;51.006;17.180;2023-02-10T04:52:02;101920.36;;;-3.05;80.04
47913;BME280;33676;51.006;17.180;2023-02-10T04:54:31;101919.84;;;-3.06;80.11
47913;BME280;33676;51.006;17.180;2023-02-10T04:56:59;101920.02;;;-3.07;80.27
47913;BME280;33676;51.006;17.180;2023-02-10T04:59:27;101925.99;;;-3.08;80.24
47913;BME280;33676;51.006;17.180;2023-02-10T05:01:56;101923.94;;;-3.09;80.28
47913;BME280;33676;51.006;17.180;2023-02-10T05:04:25;101922.91;;;-3.09;80.35
47913;BME280;33676;51.006;17.180;2023-02-10T05:06:53;101923.42;;;-3.09;80.28
47913;BME280;33676;51.006;17.180;2023-02-10T05:09:26;101929.06;;;-3.09;80.33
47913;BME280;33676;51.006;17.180;2023-02-10T05:11:58;101927.35;;;-3.10;80.41
47913;BME280;33676;51.006;17.180;2023-02-10T05:14:27;101921.37;;;-3.09;80.45
47913;BME280;33676;51.006;17.180;2023-02-10T05:16:55;101925.30;;;-3.09;80.48
47913;BME280;33676;51.006;17.180;2023-02-10T05:19:24;101924.45;;;-3.08;80.53
47913;BME280;33676;51.006;17.180;2023-02-10T05:21:52;101921.38;;;-3.07;80.46
47913;BME280;33676;51.006;17.180;2023-02-10T05:24:21;101917.10;;;-3.07;80.52
47913;BME280;33676;51.006;17.180;2023-02-10T05:26:49;101918.30;;;-3.08;80.43
47913;BME280;33676;51.006;17.180;2023-02-10T05:29:18;101920.34;;;-3.09;80.55
47913;BME280;33676;51.006;17.180;2023-02-10T05:31:46;101930.45;;;-3.12;80.38
47913;BME280;33676;51.006;17.180;2023-02-10T05:34:15;101938.98;;;-3.17;80.28
47913;BME280;33676;51.006;17.180;2023-02-10T05:36:43;101940.51;;;-3.19;80.35
47913;BME280;33676;51.006;17.180;2023-02-10T05:39:15;101940.84;;;-3.21;80.43
47913;BME280;33676;51.006;17.180;2023-02-10T05:41:55;101940.16;;;-3.19;80.70
47913;BME280;33676;51.006;17.180;2023-02-10T05:44:28;101936.94;;;-3.14;80.90
47913;BME280;33676;51.006;17.180;2023-02-10T05:46:56;101932.99;;;-3.09;81.16
47913;BME280;33676;51.006;17.180;2023-02-10T05:49:25;101935.09;;;-3.03;81.11
47913;BME280;33676;51.006;17.180;2023-02-10T05:51:54;101943.67;;;-2.96;81.24
47913;BME280;33676;51.006;17.180;2023-02-10T05:54:22;101946.60;;;-2.91;81.27
47913;BME280;33676;51.006;17.180;2023-02-10T05:56:51;101952.10;;;-2.86;81.31
47913;BME280;33676;51.006;17.180;2023-02-10T05:59:20;101955.04;;;-2.81;81.33
47913;BME280;33676;51.006;17.180;2023-02-10T06:01:48;101958.30;;;-2.75;81.51
47913;BME280;33676;51.006;17.180;2023-02-10T06:04:37;101960.73;;;-2.67;81.75
47913;BME280;33676;51.006;17.180;2023-02-10T06:07:06;101960.23;;;-2.57;81.61
47913;BME280;33676;51.006;17.180;2023-02-10T06:09:34;101964.02;;;-2.49;81.78
47913;BME280;33676;51.006;17.180;2023-02-10T06:12:02;101970.89;;;-2.38;81.89
47913;BME280;33676;51.006;17.180;2023-02-10T06:14:34;101970.23;;;-2.28;81.90
47913;BME280;33676;51.006;17.180;2023-02-10T06:17:05;101968.89;;;-2.20;81.84
47913;BME280;33676;51.006;17.180;2023-02-10T06:19:38;101971.65;;;-2.11;81.89
47913;BME280;33676;51.006;17.180;2023-02-10T06:22:09;101973.51;;;-2.04;81.65
47913;BME280;33676;51.006;17.180;2023-02-10T06:24:38;101973.17;;;-1.97;81.78
47913;BME280;33676;51.006;17.180;2023-02-10T06:27:07;101978.83;;;-1.89;81.77
47913;BME280;33676;51.006;17.180;2023-02-10T06:29:35;101983.98;;;-1.83;81.85
47913;BME280;33676;51.006;17.180;2023-02-10T06:32:04;101989.48;;;-1.77;81.87
47913;BME280;33676;51.006;17.180;2023-02-10T06:34:32;101987.42;;;-1.71;81.83
47913;BME280;33676;51.006;17.180;2023-02-10T06:37:01;101982.27;;;-1.65;81.74
47913;BME280;33676;51.006;17.180;2023-02-10T06:39:30;101989.31;;;-1.59;81.89
47913;BME280;33676;51.006;17.180;2023-02-10T06:41:59;101994.77;;;-1.55;81.84
47913;BME280;33676;51.006;17.180;2023-02-10T06:44:31;101997.50;;;-1.49;81.81
47913;BME280;33676;51.006;17.180;2023-02-10T06:47:00;101999.05;;;-1.42;81.91
47913;BME280;33676;51.006;17.180;2023-02-10T06:49:29;101997.83;;;-1.37;81.94
47913;BME280;33676;51.006;17.180;2023-02-10T06:51:57;102002.64;;;-1.39;81.83
47913;BME280;33676;51.006;17.180;2023-02-10T06:54:26;102003.33;;;-1.51;81.81
47913;BME280;33676;51.006;17.180;2023-02-10T06:56:55;101999.42;;;-1.68;81.54
47913;BME280;33676;51.006;17.180;2023-02-10T06:59:23;102007.97;;;-1.86;81.54
47913;BME280;33676;51.006;17.180;2023-02-10T07:01:52;102011.90;;;-2.00;82.61
47913;BME280;33676;51.006;17.180;2023-02-10T07:04:22;102010.69;;;-2.07;83.80
47913;BME280;33676;51.006;17.180;2023-02-10T07:06:50;102018.59;;;-2.09;84.42
47913;BME280;33676;51.006;17.180;2023-02-10T07:09:19;102016.35;;;-2.08;84.53
47913;BME280;33676;51.006;17.180;2023-02-10T07:11:48;102018.39;;;-2.04;84.75
47913;BME280;33676;51.006;17.180;2023-02-10T07:14:16;102023.73;;;-1.99;84.57
47913;BME280;33676;51.006;17.180;2023-02-10T07:16:45;102023.04;;;-1.93;84.77
47913;BME280;33676;51.006;17.180;2023-02-10T07:19:15;102025.97;;;-1.87;84.62
47913;BME280;33676;51.006;17.180;2023-02-10T07:21:44;102022.04;;;-1.77;84.85
47913;BME280;33676;51.006;17.180;2023-02-10T07:24:13;102017.42;;;-1.61;84.95
47913;BME280;33676;51.006;17.180;2023-02-10T07:26:43;102014.14;;;-1.47;84.78
47913;BME280;33676;51.006;17.180;2023-02-10T07:29:12;102022.53;;;-1.32;84.73
47913;BME280;33676;51.006;17.180;2023-02-10T07:31:40;102019.43;;;-1.18;84.69
47913;BME280;33676;51.006;17.180;2023-02-10T07:34:09;102020.42;;;-1.03;84.56
47913;BME280;33676;51.006;17.180;2023-02-10T07:36:38;102023.80;;;-0.90;84.35
47913;BME280;33676;51.006;17.180;2023-02-10T07:39:07;102018.97;;;-0.76;84.17
47913;BME280;33676;51.006;17.180;2023-02-10T07:41:38;102017.04;;;-0.62;84.05
47913;BME280;33676;51.006;17.180;2023-02-10T07:44:07;102024.34;;;-0.48;83.79
47913;BME280;33676;51.006;17.180;2023-02-10T07:46:36;102028.07;;;-0.38;83.88
47913;BME280;33676;51.006;17.180;2023-02-10T07:49:04;102034.71;;;-0.26;83.93
47913;BME280;33676;51.006;17.180;2023-02-10T07:51:33;102038.60;;;-0.14;83.68
47913;BME280;33676;51.006;17.180;2023-02-10T07:54:02;102038.19;;;-0.03;83.46
47913;BME280;33676;51.006;17.180;2023-02-10T07:56:32;102038.10;;;0.09;83.15
47913;BME280;33676;51.006;17.180;2023-02-10T07:59:01;102040.95;;;0.21;82.71
47913;BME280;33676;51.006;17.180;2023-02-10T08:01:29;102035.55;;;0.30;82.59
47913;BME280;33676;51.006;17.180;2023-02-10T08:03:58;102033.77;;;0.38;82.26
47913;BME280;33676;51.006;17.180;2023-02-10T08:06:27;102032.00;;;0.46;81.91
47913;BME280;33676;51.006;17.180;2023-02-10T08:08:55;102031.06;;;0.52;81.64
47913;BME280;33676;51.006;17.180;2023-02-10T08:11:24;102028.94;;;0.58;81.75
47913;BME280;33676;51.006;17.180;2023-02-10T08:13:53;102026.83;;;0.65;81.43
47913;BME280;33676;51.006;17.180;2023-02-10T08:16:21;102029.33;;;0.73;81.12
47913;BME280;33676;51.006;17.180;2023-02-10T08:18:50;102029.27;;;0.79;81.30
47913;BME280;33676;51.006;17.180;2023-02-10T08:21:19;102028.02;;;0.86;81.23
47913;BME280;33676;51.006;17.180;2023-02-10T08:23:47;102026.21;;;0.94;81.05
47913;BME280;33676;51.006;17.180;2023-02-10T08:26:23;102026.25;;;1.05;80.87
47913;BME280;33676;51.006;17.180;2023-02-10T08:28:52;102023.88;;;1.16;80.68
47913;BME280;33676;51.006;17.180;2023-02-10T08:31:23;102029.44;;;1.27;80.57
47913;BME280;33676;51.006;17.180;2023-02-10T08:33:52;102031.39;;;1.38;80.67
47913;BME280;33676;51.006;17.180;2023-02-10T08:36:21;102025.94;;;1.48;80.42
47913;BME280;33676;51.006;17.180;2023-02-10T08:38:50;102030.33;;;1.55;80.31
47913;BME280;33676;51.006;17.180;2023-02-10T08:41:19;102025.56;;;1.60;80.15
47913;BME280;33676;51.006;17.180;2023-02-10T08:43:48;102031.70;;;1.66;80.13
47913;BME280;33676;51.006;17.180;2023-02-10T08:46:17;102029.26;;;1.70;79.76
47913;BME280;33676;51.006;17.180;2023-02-10T08:48:45;102034.73;;;1.73;79.82
47913;BME280;33676;51.006;17.180;2023-02-10T08:51:15;102040.72;;;1.76;79.94
47913;BME280;33676;51.006;17.180;2023-02-10T08:53:44;102041.55;;;1.79;79.95
47913;BME280;33676;51.006;17.180;2023-02-10T08:56:17;102036.15;;;1.82;79.86
47913;BME280;33676;51.006;17.180;2023-02-10T08:58:46;102043.68;;;1.86;79.77
47913;BME280;33676;51.006;17.180;2023-02-10T09:01:23;102041.59;;;1.88;79.77
47913;BME280;33676;51.006;17.180;2023-02-10T09:03:57;102046.20;;;1.92;79.77
47913;BME280;33676;51.006;17.180;2023-02-10T09:06:36;102045.28;;;1.96;79.81
47913;BME280;33676;51.006;17.180;2023-02-10T09:09:19;102040.91;;;2.00;79.78
47913;BME280;33676;51.006;17.180;2023-02-10T09:11:51;102040.69;;;2.04;79.72
47913;BME280;33676;51.006;17.180;2023-02-10T09:14:20;102036.18;;;2.05;79.65
47913;BME280;33676;51.006;17.180;2023-02-10T09:16:49;102046.17;;;2.06;79.77
47913;BME280;33676;51.006;17.180;2023-02-10T09:19:20;102048.23;;;2.07;79.82
47913;BME280;33676;51.006;17.180;2023-02-10T09:21:48;102047.69;;;2.08;79.69
47913;BME280;33676;51.006;17.180;2023-02-10T09:24:17;102050.56;;;2.11;79.74
47913;BME280;33676;51.006;17.180;2023-02-10T09:26:45;102053.23;;;2.16;79.89
47913;BME280;33676;51.006;17.180;2023-02-10T09:29:14;102051.76;;;2.23;80.20
47913;BME280;33676;51.006;17.180;2023-02-10T09:31:43;102049.92;;;2.30;80.14
47913;BME280;33676;51.006;17.180;2023-02-10T09:34:12;102054.92;;;2.31;79.92
47913;BME280;33676;51.006;17.180;2023-02-10T09:36:41;102060.73;;;2.22;79.81
47913;BME280;33676;51.006;17.180;2023-02-10T09:39:09;102061.73;;;2.13;80.16
47913;BME280;33676;51.006;17.180;2023-02-10T09:41:47;102065.54;;;2.03;80.47
47913;BME280;33676;51.006;17.180;2023-02-10T09:44:29;102066.73;;;2.05;80.79
47913;BME280;33676;51.006;17.180;2023-02-10T09:52:29;102069.36;;;2.35;81.47
47913;BME280;33676;51.006;17.180;2023-02-10T09:55:00;102071.05;;;2.48;81.65
47913;BME280;33676;51.006;17.180;2023-02-10T09:57:38;102074.13;;;2.60;81.83
47913;BME280;33676;51.006;17.180;2023-02-10T10:00:26;102074.55;;;2.76;81.75
47913;BME280;33676;51.006;17.180;2023-02-10T10:02:57;102071.06;;;2.88;81.72
47913;BME280;33676;51.006;17.180;2023-02-10T10:05:42;102072.83;;;3.06;82.02
47913;BME280;33676;51.006;17.180;2023-02-10T10:08:22;102081.03;;;3.28;82.33
47913;BME280;33676;51.006;17.180;2023-02-10T10:10:53;102076.02;;;3.47;82.41
47913;BME280;33676;51.006;17.180;2023-02-10T10:13:27;102085.73;;;3.62;82.48
47913;BME280;33676;51.006;17.180;2023-02-10T10:25:27;102084.92;;;3.92;81.74
47913;BME280;33676;51.006;17.180;2023-02-10T10:31:18;102083.90;;;3.99;81.76
47913;BME280;33676;51.006;17.180;2023-02-10T10:33:53;102087.58;;;3.97;81.64
47913;BME280;33676;51.006;17.180;2023-02-10T10:36:44;102086.18;;;3.90;81.43
47913;BME280;33676;51.006;17.180;2023-02-10T10:39:40;102082.55;;;3.82;81.60
47913;BME280;33676;51.006;17.180;2023-02-10T10:42:23;102077.33;;;3.83;81.91
47913;BME280;33676;51.006;17.180;2023-02-10T10:45:04;102073.10;;;3.87;82.03
47913;BME280;33676;51.006;17.180;2023-02-10T10:47:48;102075.73;;;3.93;82.12
47913;BME280;33676;51.006;17.180;2023-02-10T10:50:22;102083.98;;;3.96;82.39
47913;BME280;33676;51.006;17.180;2023-02-10T10:52:54;102084.54;;;4.02;82.45
47913;BME280;33676;51.006;17.180;2023-02-10T10:55:50;102074.25;;;4.06;82.54
47913;BME280;33676;51.006;17.180;2023-02-10T10:58:33;102073.73;;;4.06;82.19
47913;BME280;33676;51.006;17.180;2023-02-10T11:01:04;102060.75;;;4.06;82.23
47913;BME280;33676;51.006;17.180;2023-02-10T11:03:34;102053.28;;;4.07;82.21
47913;BME280;33676;51.006;17.180;2023-02-10T11:06:12;102048.52;;;4.12;82.52
47913;BME280;33676;51.006;17.180;2023-02-10T11:09:04;102044.09;;;4.22;82.65
47913;BME280;33676;51.006;17.180;2023-02-10T11:11:41;102045.80;;;4.37;82.83
47913;BME280;33676;51.006;17.180;2023-02-10T11:14:25;102047.56;;;4.43;82.21
47913;BME280;33676;51.006;17.180;2023-02-10T11:16:58;102045.05;;;4.40;81.40
47913;BME280;33676;51.006;17.180;2023-02-10T11:19:33;102042.45;;;4.32;81.38
47913;BME280;33676;51.006;17.180;2023-02-10T11:22:20;102033.38;;;4.28;81.10
47913;BME280;33676;51.006;17.180;2023-02-10T11:24:53;102028.29;;;4.24;81.30
47913;BME280;33676;51.006;17.180;2023-02-10T11:27:22;102028.84;;;4.22;81.21
47913;BME280;33676;51.006;17.180;2023-02-10T11:29:57;102023.23;;;4.25;81.55
47913;BME280;33676;51.006;17.180;2023-02-10T11:32:33;102026.88;;;4.32;81.96
47913;BME280;33676;51.006;17.180;2023-02-10T11:35:06;102027.06;;;4.39;81.95
47913;BME280;33676;51.006;17.180;2023-02-10T11:37:43;102024.13;;;4.46;81.96
47913;BME280;33676;51.006;17.180;2023-02-10T11:40:21;102028.52;;;4.50;81.79
47913;BME280;33676;51.006;17.180;2023-02-10T11:42:56;102027.91;;;4.54;81.83
47913;BME280;33676;51.006;17.180;2023-02-10T11:45:31;102032.08;;;4.61;81.94
47913;BME280;33676;51.006;17.180;2023-02-10T11:48:04;102027.65;;;4.64;81.96
47913;BME280;33676;51.006;17.180;2023-02-10T11:50:35;102023.05;;;4.68;81.90
47913;BME280;33676;51.006;17.180;2023-02-10T11:53:04;102032.30;;;4.72;81.77
47913;BME280;33676;51.006;17.180;2023-02-10T11:56:26;102034.86;;;4.72;81.65
47913;BME280;33676;51.006;17.180;2023-02-10T11:59:47;102034.31;;;4.74;81.77
47913;BME280;33676;51.006;17.180;2023-02-10T12:03:01;102029.67;;;4.79;81.69
47913;BME280;33676;51.006;17.180;2023-02-10T12:08:27;102026.45;;;4.83;81.18
47913;BME280;33676;51.006;17.180;2023-02-10T12:11:13;102027.05;;;4.87;81.41
47913;BME280;33676;51.006;17.180;2023-02-10T12:14:02;102030.45;;;4.89;81.39
47913;BME280;33676;51.006;17.180;2023-02-10T12:17:29;102029.21;;;4.91;81.24
47913;BME280;33676;51.006;17.180;2023-02-10T12:26:37;102026.49;;;4.88;80.51
47913;BME280;33676;51.006;17.180;2023-02-10T12:32:50;102030.20;;;4.59;80.55
47913;BME280;33676;51.006;17.180;2023-02-10T12:44:08;102028.88;;;4.90;81.65
47913;BME280;33676;51.006;17.180;2023-02-10T12:50:04;102030.16;;;5.13;81.97
47913;BME280;33676;51.006;17.180;2023-02-10T12:52:48;102032.81;;;5.23;81.97
47913;BME280;33676;51.006;17.180;2023-02-10T12:55:24;102026.47;;;5.27;81.66
47913;BME280;33676;51.006;17.180;2023-02-10T12:58:17;102026.21;;;5.30;81.59
47913;BME280;33676;51.006;17.180;2023-02-10T13:01:29;102025.82;;;5.31;81.48
47913;BME280;33676;51.006;17.180;2023-02-10T13:04:11;102028.36;;;5.33;81.34
47913;BME280;33676;51.006;17.180;2023-02-10T13:06:50;102024.55;;;5.33;81.38
47913;BME280;33676;51.006;17.180;2023-02-10T13:09:43;102024.83;;;5.36;81.49
47913;BME280;33676;51.006;17.180;2023-02-10T13:12:22;102026.88;;;5.38;81.52
47913;BME280;33676;51.006;17.180;2023-02-10T13:15:02;102022.30;;;5.40;81.67
47913;BME280;33676;51.006;17.180;2023-02-10T13:18:59;102024.58;;;5.45;81.40
47913;BME280;33676;51.006;17.180;2023-02-10T13:21:48;102022.11;;;5.40;81.30
47913;BME280;33676;51.006;17.180;2023-02-10T13:27:37;102030.88;;;5.30;81.25
47913;BME280;33676;51.006;17.180;2023-02-10T13:36:01;102036.57;;;5.31;81.37
47913;BME280;33676;51.006;17.180;2023-02-10T13:38:32;102037.56;;;5.26;81.38
47913;BME280;33676;51.006;17.180;2023-02-10T13:41:01;102035.28;;;5.22;81.55
47913;BME280;33676;51.006;17.180;2023-02-10T13:43:55;102041.30;;;5.18;81.52
47913;BME280;33676;51.006;17.180;2023-02-10T13:46:30;102042.79;;;5.14;81.56
47913;BME280;33676;51.006;17.180;2023-02-10T13:49:00;102042.94;;;5.09;81.44
47913;BME280;33676;51.006;17.180;2023-02-10T13:51:37;102039.52;;;5.00;81.83
47913;BME280;33676;51.006;17.180;2023-02-10T13:54:28;102036.60;;;4.93;81.81
47913;BME280;33676;51.006;17.180;2023-02-10T13:56:58;102039.13;;;4.89;82.25
47913;BME280;33676;51.006;17.180;2023-02-10T13:59:37;102034.86;;;4.86;82.22
47913;BME280;33676;51.006;17.180;2023-02-10T14:02:21;102040.14;;;4.83;82.18
47913;BME280;33676;51.006;17.180;2023-02-10T14:04:54;102042.09;;;4.81;82.23
47913;BME280;33676;51.006;17.180;2023-02-10T14:13:24;102047.21;;;4.78;82.18
47913;BME280;33676;51.006;17.180;2023-02-10T14:16:03;102047.17;;;4.73;82.23
47913;BME280;33676;51.006;17.180;2023-02-10T14:18:37;102053.49;;;4.69;82.45
47913;BME280;33676;51.006;17.180;2023-02-10T14:21:15;102056.34;;;4.67;82.71
47913;BME280;33676;51.006;17.180;2023-02-10T14:23:52;102059.65;;;4.67;82.77
47913;BME280;33676;51.006;17.180;2023-02-10T14:26:30;102057.94;;;4.66;82.80
47913;BME280;33676;51.006;17.180;2023-02-10T14:29:03;102060.57;;;4.64;82.71